Time;durP1;ratioP1;P1;durP2;ratioP2;P2;SDS_P1;SDS_P2;PMS_P1;PMS_P2;Temp;Humidity;BMP_temperature;BMP_pressure;BME280_temperature;BME280_humidity;BME280_pressure;Samples;Min_cycle;Max_cycle;Signal;HPM_P1;HPM_P2
2023/10/16 00:04:18;;;;;;;4.27;1.87;;;;;;;-145.68;100.00;75273.13;10480778;28;20687;-71
2023/10/16 00:09:22;;;;;;;3.73;2.03;;;;;;;-145.68;100.00;75287.13;10480517;28;20226;-70
2023/10/16 00:14:27;;;;;;;4.43;2.23;;;;;;;-145.68;100.00;75281.13;10478271;28;20690;-70
2023/10/16 00:19:27;;;;;;;6.90;2.73;;;;;;;-145.68;100.00;75289.13;10480456;28;20318;-69
2023/10/16 00:24:28;;;;;;;3.43;2.10;;;;;;;-145.68;100.00;75289.13;10479731;28;20282;-70
2023/10/16 00:29:38;;;;;;;2.57;1.60;;;;;;;-145.68;100.00;75283.13;10479802;28;20219;-70
2023/10/16 00:34:39;;;;;;;3.30;2.10;;;;;;;-145.68;100.00;75283.13;10479813;28;20207;-70
2023/10/16 00:39:39;;;;;;;3.90;1.90;;;;;;;-145.68;100.00;75295.13;10471465;28;20215;-70
2023/10/16 00:44:39;;;;;;;6.17;1.73;;;;;;;-145.68;100.00;75291.13;10479432;28;20244;-70
2023/10/16 00:49:40;;;;;;;3.37;1.80;;;;;;;-145.68;100.00;75293.13;10478847;28;20300;-69
2023/10/16 00:54:41;;;;;;;2.13;1.77;;;;;;;-145.68;100.00;75301.13;10444409;28;20199;-69
2023/10/16 00:59:42;;;;;;;4.30;1.90;;;;;;;-145.68;100.00;75303.13;10477937;28;20226;-70
2023/10/16 01:04:43;;;;;;;3.00;2.10;;;;;;;-145.68;100.00;75305.13;10478505;28;20569;-69
2023/10/16 01:09:46;;;;;;;2.90;1.93;;;;;;;-145.68;100.00;75295.13;10478609;28;21105;-70
2023/10/16 01:14:46;;;;;;;4.77;1.70;;;;;;;-145.68;100.00;75299.13;10478659;28;20250;-70
2023/10/16 01:19:47;;;;;;;7.00;2.17;;;;;;;-145.68;100.00;75303.13;10478385;28;20199;-69
2023/10/16 01:24:48;;;;;;;6.23;1.63;;;;;;;-145.68;100.00;75295.13;10478260;28;20195;-70
2023/10/16 01:29:48;;;;;;;4.17;1.80;;;;;;;-145.68;100.00;75299.13;10478246;28;20618;-70
2023/10/16 01:34:50;;;;;;;7.17;1.90;;;;;;;-145.68;100.00;75305.13;10478206;28;20211;-71
2023/10/16 01:39:53;;;;;;;8.87;1.87;;;;;;;-145.68;100.00;75315.13;10478781;28;20416;-71
2023/10/16 01:44:54;;;;;;;4.70;1.50;;;;;;;-145.68;100.00;75315.13;10478270;28;20220;-70
2023/10/16 01:49:54;;;;;;;3.37;1.70;;;;;;;-145.68;100.00;75315.13;10477402;28;20258;-70
2023/10/16 02:01:17;;;;;;;4.73;1.87;;;;;;;-145.68;100.00;75313.13;10471793;28;20669;-71
2023/10/16 02:06:18;;;;;;;5.77;2.27;;;;;;;-145.68;100.00;75315.13;10477447;28;20215;-70
2023/10/16 02:11:19;;;;;;;5.60;2.10;;;;;;;-145.68;100.00;75325.09;10473878;28;20215;-69
2023/10/16 02:16:19;;;;;;;10.13;2.27;;;;;;;-145.68;100.00;75325.09;10484276;28;20700;-69
2023/10/16 02:21:22;;;;;;;5.70;2.43;;;;;;;-145.68;100.00;75319.13;10483580;28;20784;-69
2023/10/16 02:26:22;;;;;;;6.23;2.27;;;;;;;-145.68;100.00;75331.09;10466136;28;20211;-69
2023/10/16 02:31:24;;;;;;;7.80;2.30;;;;;;;-145.68;100.00;75327.09;10483069;28;20308;-68
2023/10/16 02:36:24;;;;;;;10.87;2.70;;;;;;;-145.68;100.00;75323.09;10483153;28;20207;-68
2023/10/16 02:41:26;;;;;;;5.13;2.20;;;;;;;-145.68;100.00;75337.09;10482972;28;20199;-68
2023/10/16 02:46:26;;;;;;;4.53;2.30;;;;;;;-145.68;100.00;75339.09;10465170;28;20723;-69
2023/10/16 02:51:27;;;;;;;7.57;2.73;;;;;;;-145.68;100.00;75329.09;10481311;28;20271;-69
2023/10/16 02:56:28;;;;;;;6.70;2.50;;;;;;;-145.68;100.00;75347.09;10482748;28;20222;-69
2023/10/16 03:01:28;;;;;;;10.27;2.70;;;;;;;-145.68;100.00;75351.09;10482288;28;20222;-69
2023/10/16 03:06:31;;;;;;;4.80;2.37;;;;;;;-145.68;100.00;75351.09;10482150;28;20229;-69
2023/10/16 03:11:32;;;;;;;6.33;2.10;;;;;;;-145.68;100.00;75349.09;10463238;28;20317;-69
2023/10/16 03:16:36;;;;;;;5.17;2.10;;;;;;;-145.68;100.00;75353.09;10481834;28;20214;-69
2023/10/16 03:21:40;;;;;;;5.07;2.00;;;;;;;-145.68;100.00;75353.09;10462498;28;20622;-68
2023/10/16 03:26:43;;;;;;;5.60;2.03;;;;;;;-145.68;100.00;75359.09;10477913;28;20219;-69
2023/10/16 03:31:43;;;;;;;5.97;1.93;;;;;;;-145.68;100.00;75357.09;10463245;28;20220;-69
2023/10/16 03:36:44;;;;;;;6.43;2.00;;;;;;;-145.68;100.00;75357.09;10481080;28;20219;-69
2023/10/16 03:41:44;;;;;;;4.13;1.93;;;;;;;-145.68;100.00;75357.09;10480688;28;20196;-68
2023/10/16 03:46:45;;;;;;;7.00;2.00;;;;;;;-145.68;100.00;75363.09;10481702;28;20307;-69
2023/10/16 03:51:46;;;;;;;4.57;2.03;;;;;;;-145.68;100.00;75359.09;10489574;28;20221;-69
2023/10/16 03:56:47;;;;;;;17.13;2.57;;;;;;;-145.68;100.00;75351.09;10489649;28;20227;-69
2023/10/16 04:01:47;;;;;;;7.53;2.10;;;;;;;-145.68;100.00;75341.09;10489417;28;20194;-69
2023/10/16 04:06:48;;;;;;;3.80;2.17;;;;;;;-145.68;100.00;75339.09;10490210;28;20677;-69
2023/10/16 04:11:54;;;;;;;6.13;2.17;;;;;;;-145.68;100.00;75355.09;10488581;28;20285;-69
2023/10/16 04:16:54;;;;;;;5.20;2.40;;;;;;;-145.68;100.00;75353.09;10489048;28;20912;-69
2023/10/16 04:21:57;;;;;;;15.67;2.63;;;;;;;-145.68;100.00;75337.09;10488867;28;20189;-69
2023/10/16 04:32:19;;;;;;;3.67;2.10;;;;;;;-145.68;100.00;75333.09;10488258;28;20219;-69
2023/10/16 04:37:31;;;;;;;6.93;2.67;;;;;;;-145.68;100.00;75343.09;10487276;28;20290;-67
2023/10/16 04:58:27;;;;;;;7.73;3.20;;;;;;;-145.68;100.00;75335.09;10481865;28;20256;-68
2023/10/16 05:08:39;;;;;;;6.30;2.93;;;;;;;-145.68;100.00;75339.09;10482663;28;20222;-69
2023/10/16 05:13:39;;;;;;;8.60;2.97;;;;;;;-145.68;100.00;75331.09;10486253;28;20216;-69
2023/10/16 05:18:43;;;;;;;5.60;2.67;;;;;;;-145.68;100.00;75343.09;10487042;28;20230;-69
2023/10/16 06:17:15;;;;;;;5.37;2.33;;;;;;;-145.68;100.00;75337.09;10493214;28;20766;-71
2023/10/16 06:22:16;;;;;;;7.63;2.57;;;;;;;-145.68;100.00;75341.09;10492171;28;20727;-69
2023/10/16 06:27:19;;;;;;;7.00;2.67;;;;;;;-145.68;100.00;75335.09;10466082;28;20309;-71
2023/10/16 06:32:25;;;;;;;11.37;2.73;;;;;;;-145.68;100.00;75323.09;10464078;28;20249;-70
2023/10/16 06:37:28;;;;;;;5.63;2.60;;;;;;;-145.68;100.00;75293.13;10484790;28;20233;-70
2023/10/16 06:42:29;;;;;;;8.50;2.37;;;;;;;-145.68;100.00;75289.13;10486810;28;20194;-69
2023/10/16 06:47:35;;;;;;;4.90;2.30;;;;;;;-145.68;100.00;75271.13;10493764;28;20241;-69
2023/10/16 06:52:39;;;;;;;4.73;2.70;;;;;;;-145.68;100.00;75251.13;10493718;28;20294;-70
2023/10/16 06:57:39;;;;;;;8.53;2.80;;;;;;;-145.68;100.00;75213.13;10492515;28;20968;-69
2023/10/16 07:02:40;;;;;;;3.97;2.20;;;;;;;-145.68;100.00;75183.13;10493012;28;20256;-69
2023/10/16 07:07:40;;;;;;;2.40;1.80;;;;;;;-145.68;100.00;75095.16;10492996;28;20215;-69
2023/10/16 07:12:58;;;;;;;8.70;2.03;;;;;;;-145.68;100.00;74977.19;10493029;28;20357;-68
2023/10/16 07:18:05;;;;;;;5.10;2.23;;;;;;;-145.68;100.00;75043.16;10479036;28;20210;-69
2023/10/16 07:23:10;;;;;;;6.17;1.90;;;;;;;-145.68;100.00;74963.19;10481763;28;20561;-68
2023/10/16 07:28:11;;;;;;;5.20;2.07;;;;;;;-145.68;100.00;75015.16;10461431;28;20219;-69
2023/10/16 07:33:14;;;;;;;8.20;2.67;;;;;;;-145.68;100.00;74939.19;10469253;28;20760;-71
2023/10/16 07:38:20;;;;;;;9.00;2.17;;;;;;;-145.68;97.57;74891.19;10469490;28;20214;-69
2023/10/16 07:43:28;;;;;;;4.23;2.10;;;;;;;-145.68;94.82;75003.16;10485543;28;20190;-69
2023/10/16 07:48:29;;;;;;;4.93;2.20;;;;;;;-145.68;94.01;74935.19;10481489;28;20335;-68
2023/10/16 07:53:29;;;;;;;4.73;2.10;;;;;;;-145.68;94.17;75019.16;10487960;28;20211;-68
2023/10/16 07:58:47;;;;;;;6.10;2.67;;;;;;;-145.68;98.54;74995.16;10486935;28;20646;-70
2023/10/16 08:03:48;;;;;;;9.57;3.30;;;;;;;-145.68;100.00;75073.16;10487455;28;20186;-69
2023/10/16 08:08:49;;;;;;;8.77;3.47;;;;;;;-145.68;100.00;75071.16;10484956;28;20640;-68
2023/10/16 08:13:52;;;;;;;6.90;3.10;;;;;;;-145.68;100.00;75075.16;10460224;28;20317;-69
2023/10/16 08:18:53;;;;;;;6.47;3.53;;;;;;;-145.68;100.00;75097.16;10486318;28;20209;-69
2023/10/16 08:23:56;;;;;;;4.10;3.40;;;;;;;-145.68;100.00;75045.16;10485019;28;20187;-67
2023/10/16 08:29:11;;;;;;;7.27;2.60;;;;;;;-145.68;100.00;75015.16;10486435;28;20217;-68
2023/10/16 08:34:14;;;;;;;6.73;2.87;;;;;;;-145.68;100.00;74871.19;10480343;28;20652;-69
2023/10/16 08:39:17;;;;;;;9.37;2.47;;;;;;;-145.68;92.73;74713.25;10485913;28;20223;-70
2023/10/16 08:44:18;;;;;;;6.67;2.70;;;;;;;-145.68;88.64;74919.19;10486052;28;20222;-70
2023/10/16 08:49:22;;;;;;;7.17;3.23;;;;;;;-145.68;88.76;74955.19;10485392;28;20322;-69
2023/10/16 08:59:51;;;;;;;6.93;3.10;;;;;;;-145.68;92.68;74925.19;10465793;28;20588;-68
2023/10/16 09:04:52;;;;;;;5.53;3.30;;;;;;;-145.68;90.52;74863.22;10467471;28;20188;-69
2023/10/16 09:09:55;;;;;;;4.47;2.80;;;;;;;-145.68;90.51;74895.19;10485559;28;20616;-69
2023/10/16 09:15:06;;;;;;;8.03;2.70;;;;;;;-145.68;86.94;74899.19;10485378;28;20215;-68
2023/10/16 09:20:13;;;;;;;6.30;3.00;;;;;;;-145.68;91.35;74929.19;10485418;28;20219;-68
2023/10/16 09:25:15;;;;;;;6.07;3.00;;;;;;;-145.68;94.94;74937.19;10481200;28;20328;-68
2023/10/16 09:30:15;;;;;;;7.53;3.13;;;;;;;-145.68;93.58;74899.19;10482822;28;20225;-69
2023/10/16 09:35:17;;;;;;;5.13;2.73;;;;;;;-145.68;89.09;74833.22;10485076;28;20195;-69
2023/10/16 09:40:37;;;;;;;6.53;3.03;;;;;;;-145.68;90.55;74909.19;10485034;28;20242;-69
2023/10/16 09:45:38;;;;;;;10.37;3.13;;;;;;;-145.68;90.31;74895.19;10480720;28;20235;-68
2023/10/16 09:50:38;;;;;;;5.47;2.80;;;;;;;-145.68;89.43;74917.19;10484592;28;20993;-68
2023/10/16 09:55:44;;;;;;;7.63;2.70;;;;;;;-145.68;87.79;74855.22;10482003;28;20278;-69
2023/10/16 10:00:46;;;;;;;6.93;2.53;;;;;;;-145.68;85.19;74755.22;10446223;28;20207;-68
2023/10/16 10:11:17;;;;;;;5.17;2.20;;;;;;;-145.68;81.45;74805.22;10484268;28;20924;-68
2023/10/16 10:16:20;;;;;;;5.83;2.03;;;;;;;-145.68;77.26;74741.25;10468292;28;20576;-70
2023/10/16 10:21:30;;;;;;;8.57;2.00;;;;;;;-145.68;75.97;74715.25;10484194;28;20210;-69
2023/10/16 10:26:33;;;;;;;2.30;1.60;;;;;;;-145.68;71.27;74615.28;10480658;28;20243;-70
2023/10/16 10:31:34;;;;;;;11.00;2.13;;;;;;;-145.68;69.97;74627.28;10480057;28;20212;-70
2023/10/16 10:36:34;;;;;;;4.73;1.80;;;;;;;-145.68;71.28;74595.28;10491403;28;20609;-68
2023/10/16 10:41:54;;;;;;;2.70;1.67;;;;;;;-145.68;67.46;74431.34;10491138;28;20187;-69
2023/10/16 10:46:54;;;;;;;3.53;1.70;;;;;;;-145.68;66.23;74465.31;10490828;28;20326;-69
2023/10/16 10:51:55;;;;;;;3.83;1.57;;;;;;;-145.68;66.25;74467.31;10490394;28;20219;-69
2023/10/16 10:56:59;;;;;;;8.97;2.23;;;;;;;-145.68;65.75;74539.31;10468006;28;20635;-68
2023/10/16 11:02:20;;;;;;;2.77;1.80;;;;;;;-145.68;66.76;74531.31;10453050;28;20219;-69
2023/10/16 11:07:59;;;;;;;3.77;1.67;;;;;;;-145.68;65.14;74373.38;10477306;28;20242;-71
2023/10/16 11:13:03;;;;;;;6.17;1.70;;;;;;;-145.68;63.43;74487.31;10455282;28;20223;-71
2023/10/16 11:18:11;;;;;;;8.30;1.60;;;;;;;-145.68;64.47;74421.34;10474419;28;20200;-71
2023/10/16 11:23:12;;;;;;;3.43;1.30;;;;;;;-145.68;59.98;74161.44;10468414;28;20527;-70
2023/10/16 11:28:20;;;;;;;3.78;1.63;;;;;;;-145.68;55.21;74111.47;10456038;28;20278;-71
2023/10/16 11:33:34;;;;;;;4.20;1.60;;;;;;;-145.68;61.61;74451.34;10450185;28;20238;-70
2023/10/16 11:38:34;;;;;;;4.50;1.50;;;;;;;-145.68;58.31;74339.38;10423137;22;20249;-66
2023/10/16 11:43:38;;;;;;;3.60;1.60;;;;;;;-145.68;62.51;74583.28;10327338;28;20568;-64
2023/10/16 11:48:42;;;;;;;5.20;1.93;;;;;;;-145.68;66.25;74589.28;10329774;28;20582;-65
2023/10/16 11:53:45;;;;;;;14.43;2.77;;;;;;;-145.68;68.41;74623.28;10328668;28;20229;-64
2023/10/16 11:58:46;;;;;;;7.57;1.60;;;;;;;-145.68;67.34;74655.25;10332937;28;20252;-64
2023/10/16 12:03:46;;;;;;;2.70;1.70;;;;;;;-145.68;65.83;74523.31;10341026;28;20201;-64
2023/10/16 12:08:46;;;;;;;6.90;1.40;;;;;;;-145.68;63.53;74503.31;10338696;28;20205;-63
2023/10/16 12:13:47;;;;;;;7.00;1.43;;;;;;;-145.68;61.44;74429.34;10339931;28;20308;-65
2023/10/16 12:18:47;;;;;;;1.97;1.20;;;;;;;-145.68;59.00;74257.41;10340417;28;20221;-65
2023/10/16 12:23:49;;;;;;;1.87;1.20;;;;;;;-145.68;59.75;74369.38;10335357;28;20198;-64
2023/10/16 12:28:50;;;;;;;2.73;1.17;;;;;;;-145.68;59.83;74369.38;10335410;28;20214;-63
2023/10/16 12:33:51;;;;;;;4.80;1.37;;;;;;;-145.68;59.82;74423.34;10335994;28;20217;-65
2023/10/16 12:38:53;;;;;;;5.60;1.70;;;;;;;-145.68;58.72;74361.38;10336583;28;20300;-64
2023/10/16 12:43:53;;;;;;;4.80;1.50;;;;;;;-145.68;57.61;74319.38;10342555;28;20632;-64
2023/10/16 12:48:54;;;;;;;2.97;1.23;;;;;;;-145.68;57.22;74283.41;10344197;28;20296;-64
2023/10/16 12:53:55;;;;;;;5.03;1.40;;;;;;;-145.68;57.66;74307.38;10342783;28;20349;-64
2023/10/16 12:58:57;;;;;;;4.73;1.10;;;;;;;-145.68;58.68;74287.41;10340441;28;20301;-64
2023/10/16 13:04:00;;;;;;;7.37;3.20;;;;;;;-145.68;59.11;74467.31;10330515;28;20273;-64
2023/10/16 13:09:02;;;;;;;6.90;2.23;;;;;;;-145.68;62.26;74511.31;10326670;28;20651;-65
2023/10/16 13:14:02;;;;;;;6.07;1.80;;;;;;;-145.68;61.92;74467.31;10344863;28;20220;-65
2023/10/16 13:19:03;;;;;;;3.17;1.40;;;;;;;-145.68;62.64;74535.31;10339424;28;20751;-64
2023/10/16 13:24:16;;;;;;;4.20;2.13;;;;;;;-145.68;62.98;74489.31;10340271;28;20194;-64
2023/10/16 13:29:17;;;;;;;4.03;1.70;;;;;;;-145.68;63.24;74487.31;10328629;28;20590;-63
2023/10/16 13:34:19;;;;;;;5.67;2.60;;;;;;;-145.68;63.17;74477.31;10349341;28;20237;-66
2023/10/16 13:39:20;;;;;;;14.27;2.47;;;;;;;-145.68;63.90;74531.31;10355798;28;20237;-67
2023/10/16 13:44:24;;;;;;;7.10;1.60;;;;;;;-145.68;63.52;74489.31;10363099;28;20185;-64
2023/10/16 13:49:25;;;;;;;4.93;2.60;;;;;;;-145.68;63.04;74479.31;10362632;28;20271;-66
2023/10/16 13:54:26;;;;;;;3.10;1.67;;;;;;;-145.68;63.02;74471.31;10361499;28;20299;-66
2023/10/16 13:59:26;;;;;;;10.03;1.83;;;;;;;-145.68;63.09;74553.28;10348781;28;20217;-65
2023/10/16 14:04:32;;;;;;;7.37;1.50;;;;;;;-145.68;64.59;74483.31;10362830;28;20543;-66
2023/10/16 14:09:33;;;;;;;4.27;1.60;;;;;;;-145.68;63.78;74471.31;10352656;28;20216;-66
2023/10/16 14:14:33;;;;;;;3.73;1.70;;;;;;;-145.68;63.50;74511.31;10363980;28;20247;-65
2023/10/16 14:19:35;;;;;;;7.07;2.20;;;;;;;-145.68;61.79;74419.34;10369492;28;20213;-65
2023/10/16 14:24:35;;;;;;;6.70;1.70;;;;;;;-145.68;60.64;74423.34;10361053;28;20267;-66
2023/10/16 14:29:39;;;;;;;6.00;3.20;;;;;;;-145.68;61.35;74479.31;10368588;28;20292;-66
2023/10/16 14:34:40;;;;;;;4.50;1.60;;;;;;;-145.68;62.03;74375.38;10357087;28;20305;-66
2023/10/16 14:39:40;;;;;;;4.33;1.70;;;;;;;-145.68;56.48;74147.47;10335418;28;20707;-66
2023/10/16 14:44:44;;;;;;;6.22;1.45;;;;;;;-145.68;52.66;73915.56;10343923;28;20657;-66
2023/10/16 14:49:44;;;;;;;4.47;1.33;;;;;;;-145.68;53.02;74087.47;10367513;28;20225;-66
2023/10/16 14:54:45;;;;;;;5.70;1.45;;;;;;;-145.68;53.32;74049.50;10350413;28;20238;-67
2023/10/16 14:59:45;;;;;;;5.93;1.75;;;;;;;-145.68;54.16;74119.47;10353925;28;20225;-66
2023/10/16 15:04:46;;;;;;;6.40;1.50;;;;;;;-145.68;50.94;73911.56;10346793;28;20241;-66
2023/10/16 15:09:46;;;;;;;2.80;1.25;;;;;;;-145.68;49.51;73883.59;10346893;28;20221;-65
2023/10/16 15:14:47;;;;;;;2.60;1.73;;;;;;;-145.68;54.59;74309.38;10346685;28;20225;-65
2023/10/16 15:19:48;;;;;;;8.35;2.00;;;;;;;-145.68;56.56;74343.38;10344949;28;20228;-64
2023/10/16 15:24:48;;;;;;;5.77;1.93;;;;;;;-145.68;62.42;74555.28;10363044;28;20686;-65
2023/10/16 15:29:49;;;;;;;4.57;1.60;;;;;;;-145.68;62.84;74493.31;10366313;28;20205;-65
2023/10/16 15:34:49;;;;;;;3.07;1.30;;;;;;;-145.68;64.01;74561.28;10366260;28;20253;-65
2023/10/16 15:39:50;;;;;;;6.63;1.70;;;;;;;-145.68;66.29;74623.28;10365610;28;20699;-65
2023/10/16 15:44:51;;;;;;;7.40;1.80;;;;;;;-145.68;68.12;74663.25;10356334;28;20193;-65
2023/10/16 15:49:52;;;;;;;3.87;1.97;;;;;;;-145.68;69.53;74663.25;10333442;28;20210;-65
2023/10/16 15:54:52;;;;;;;3.70;1.97;;;;;;;-145.68;71.49;74731.25;10334303;28;20268;-66
2023/10/16 15:59:53;;;;;;;7.10;3.60;;;;;;;-145.68;73.30;74735.25;10332884;28;20718;-66
2023/10/16 16:04:54;;;;;;;9.03;3.63;;;;;;;-145.68;74.73;74695.25;10343167;28;20198;-65
2023/10/16 16:09:57;;;;;;;10.30;2.50;;;;;;;-145.68;75.23;74697.25;10338115;28;20205;-65
2023/10/16 16:14:58;;;;;;;4.13;1.70;;;;;;;-145.68;75.48;74697.25;10336224;28;20214;-65
2023/10/16 16:19:58;;;;;;;10.80;2.60;;;;;;;-145.68;75.70;74729.25;10361793;28;20668;-65
2023/10/16 16:24:59;;;;;;;9.03;2.70;;;;;;;-145.68;76.46;74715.25;10364605;28;20201;-66
2023/10/16 16:29:59;;;;;;;2.97;2.10;;;;;;;-145.68;77.00;74709.25;10363412;28;20248;-66
2023/10/16 16:35:00;;;;;;;5.97;2.23;;;;;;;-145.68;76.94;74725.25;10364325;28;20205;-66
2023/10/16 16:40:06;;;;;;;6.57;2.83;;;;;;;-145.68;77.49;74719.25;10363753;28;20236;-66
2023/10/16 16:45:07;;;;;;;13.47;5.13;;;;;;;-145.68;79.61;74751.22;10363967;28;20220;-65
2023/10/16 16:50:13;;;;;;;10.43;5.77;;;;;;;-145.68;83.88;74843.22;10363754;28;20647;-66
2023/10/16 16:55:14;;;;;;;5.13;3.77;;;;;;;-145.68;89.01;74851.22;10363536;28;20591;-66
2023/10/16 17:00:26;;;;;;;5.83;3.10;;;;;;;-145.68;91.35;74831.22;10363306;28;20245;-65
2023/10/16 17:05:26;;;;;;;9.57;5.10;;;;;;;-145.68;93.76;74841.22;10363556;28;20193;-64
2023/10/16 17:10:30;;;;;;;7.20;4.37;;;;;;;-145.68;96.37;74859.22;10362861;28;20217;-64
2023/10/16 17:15:33;;;;;;;10.03;3.70;;;;;;;-145.68;98.21;74851.22;10363143;28;20188;-66
2023/10/16 17:20:33;;;;;;;6.57;3.30;;;;;;;-145.68;98.61;74863.22;10363060;28;20209;-67
2023/10/16 17:25:35;;;;;;;7.20;3.97;;;;;;;-145.68;99.91;74875.19;10362985;28;20185;-67
2023/10/16 17:30:35;;;;;;;5.50;3.20;;;;;;;-145.68;99.76;74879.19;10362752;28;20250;-66
2023/10/16 17:35:38;;;;;;;9.97;4.70;;;;;;;-145.68;99.71;74877.19;10362560;28;20205;-67
2023/10/16 17:40:38;;;;;;;6.83;3.73;;;;;;;-145.68;98.88;74887.19;10362804;28;20282;-66
2023/10/16 17:45:38;;;;;;;7.43;3.57;;;;;;;-145.68;98.40;74885.19;10371085;28;20193;-66
2023/10/16 17:50:43;;;;;;;9.27;3.00;;;;;;;-145.68;97.90;74887.19;10370408;28;20940;-67
2023/10/16 17:55:44;;;;;;;7.30;2.70;;;;;;;-145.68;98.02;74883.19;10370703;28;20747;-66
2023/10/16 18:00:44;;;;;;;5.30;2.60;;;;;;;-145.68;98.31;74889.19;10370104;28;20228;-66
2023/10/16 18:05:46;;;;;;;8.97;3.30;;;;;;;-145.68;98.57;74895.19;10370308;28;20684;-66
2023/10/16 18:10:47;;;;;;;10.07;2.97;;;;;;;-145.68;98.97;74899.19;10369999;28;20320;-65
2023/10/16 18:15:50;;;;;;;5.10;3.67;;;;;;;-145.68;99.17;74899.19;10369760;28;20276;-65
2023/10/16 18:20:50;;;;;;;8.20;4.03;;;;;;;-145.68;99.59;74903.19;10369432;28;20679;-65
2023/10/16 18:25:51;;;;;;;7.67;3.87;;;;;;;-145.68;100.00;74917.19;10369455;28;20258;-65
2023/10/16 18:30:53;;;;;;;7.83;3.40;;;;;;;-145.68;100.00;74915.19;10369378;28;20209;-65
2023/10/16 18:35:54;;;;;;;7.30;3.57;;;;;;;-145.68;100.00;74935.19;10368634;28;20664;-65
2023/10/16 18:40:54;;;;;;;10.70;4.47;;;;;;;-145.68;100.00;74951.19;10368185;28;20244;-65
2023/10/16 18:45:56;;;;;;;11.20;5.50;;;;;;;-145.68;100.00;74957.19;10368680;28;20190;-65
2023/10/16 18:50:56;;;;;;;8.63;4.33;;;;;;;-145.68;100.00;74973.19;10363489;28;20219;-65
2023/10/16 18:55:57;;;;;;;4.00;3.13;;;;;;;-145.68;100.00;74971.19;10361885;28;20189;-66
2023/10/16 19:01:03;;;;;;;4.53;3.13;;;;;;;-145.68;100.00;74965.19;10367669;28;20212;-66
2023/10/16 19:06:05;;;;;;;7.10;3.50;;;;;;;-145.68;100.00;74977.19;10359227;28;20198;-66
2023/10/16 19:11:07;;;;;;;5.50;3.53;;;;;;;-145.68;100.00;74989.16;10367451;28;20218;-65
2023/10/16 19:16:07;;;;;;;6.17;3.60;;;;;;;-145.68;100.00;74975.19;10367327;28;20627;-65
2023/10/16 19:21:08;;;;;;;6.63;4.67;;;;;;;-145.68;100.00;74993.16;10367008;28;20263;-65
2023/10/16 19:26:13;;;;;;;9.67;4.47;;;;;;;-145.68;100.00;74995.16;10366956;28;20193;-65
2023/10/16 19:31:16;;;;;;;5.67;3.77;;;;;;;-145.68;100.00;75001.16;10366635;28;20734;-65
2023/10/16 19:36:20;;;;;;;6.47;3.50;;;;;;;-145.68;100.00;75001.16;10362340;28;20202;-65
2023/10/16 19:41:21;;;;;;;8.27;3.70;;;;;;;-145.68;100.00;75003.16;10366285;28;20221;-66
2023/10/16 19:46:22;;;;;;;7.67;4.20;;;;;;;-145.68;100.00;75007.16;10365705;28;20196;-66
2023/10/16 19:51:23;;;;;;;9.37;3.70;;;;;;;-145.68;100.00;74997.16;10365866;28;20240;-66
2023/10/16 19:56:24;;;;;;;12.50;3.70;;;;;;;-145.68;100.00;74979.19;10365668;28;20204;-66
2023/10/16 20:01:24;;;;;;;6.30;3.80;;;;;;;-145.68;100.00;75001.16;10365470;28;20201;-66
2023/10/16 20:06:29;;;;;;;8.63;4.07;;;;;;;-145.68;100.00;74991.16;10350922;28;20194;-65
2023/10/16 20:11:29;;;;;;;8.57;3.53;;;;;;;-145.68;100.00;74999.16;10349066;28;20275;-65
2023/10/16 20:16:30;;;;;;;4.77;3.17;;;;;;;-145.68;100.00;75019.16;10359188;28;20216;-66
2023/10/16 20:21:31;;;;;;;6.80;3.30;;;;;;;-145.68;100.00;75013.16;10361080;28;20281;-66
2023/10/16 20:26:32;;;;;;;5.77;3.00;;;;;;;-145.68;100.00;75013.16;10364505;28;20197;-65
2023/10/16 20:31:33;;;;;;;10.80;2.97;;;;;;;-145.68;100.00;75007.16;10364230;28;20244;-65
2023/10/16 20:36:35;;;;;;;9.27;3.23;;;;;;;-145.68;100.00;75019.16;10364010;28;20228;-65
2023/10/16 20:41:35;;;;;;;7.10;3.20;;;;;;;-145.68;100.00;75017.16;10364121;28;20267;-65
2023/10/16 20:46:38;;;;;;;8.00;3.80;;;;;;;-145.68;100.00;75013.16;10363787;28;20193;-65
2023/10/16 20:51:38;;;;;;;6.90;2.73;;;;;;;-145.68;100.00;75025.16;10363849;28;20209;-65
2023/10/16 20:56:39;;;;;;;7.60;3.07;;;;;;;-145.68;100.00;75031.16;10363569;28;20213;-66
2023/10/16 21:01:40;;;;;;;5.97;2.53;;;;;;;-145.68;100.00;75021.16;10363299;28;20189;-65
2023/10/16 21:06:40;;;;;;;5.23;2.57;;;;;;;-145.68;100.00;75021.16;10364028;28;20216;-66
2023/10/16 21:11:41;;;;;;;3.13;2.70;;;;;;;-145.68;100.00;75021.16;10343078;28;20218;-66
2023/10/16 21:16:43;;;;;;;7.17;2.60;;;;;;;-145.68;100.00;75047.16;10344916;28;20952;-66
2023/10/16 21:21:43;;;;;;;2.67;2.07;;;;;;;-145.68;100.00;75041.16;10342262;28;20194;-66
2023/10/16 21:26:43;;;;;;;7.53;2.40;;;;;;;-145.68;100.00;75043.16;10332878;28;20220;-66
2023/10/16 21:31:44;;;;;;;2.93;2.30;;;;;;;-145.68;100.00;75053.16;10331109;28;20224;-66
2023/10/16 21:36:44;;;;;;;11.43;3.07;;;;;;;-145.68;100.00;75049.16;10355602;28;20232;-66
2023/10/16 21:41:45;;;;;;;7.77;2.70;;;;;;;-145.68;100.00;75049.16;10356100;28;20212;-66
2023/10/16 21:46:46;;;;;;;3.77;2.33;;;;;;;-145.68;100.00;75059.16;10345351;28;20229;-66
2023/10/16 21:51:46;;;;;;;3.80;2.00;;;;;;;-145.68;100.00;75063.16;10342636;28;20320;-66
2023/10/16 21:56:46;;;;;;;3.70;2.53;;;;;;;-145.68;100.00;75067.16;10330894;28;20213;-65
2023/10/16 22:01:47;;;;;;;3.67;2.53;;;;;;;-145.68;100.00;75067.16;10325566;28;20189;-66
2023/10/16 22:06:48;;;;;;;8.00;2.73;;;;;;;-145.68;100.00;75067.16;10352210;28;20216;-66
2023/10/16 22:11:48;;;;;;;5.93;2.50;;;;;;;-145.68;100.00;75057.16;10358411;28;20274;-65
2023/10/16 22:16:49;;;;;;;6.57;2.50;;;;;;;-145.68;100.00;75055.16;10362260;28;20213;-66
2023/10/16 22:21:53;;;;;;;3.43;2.30;;;;;;;-145.68;100.00;75055.16;10322189;28;20219;-65
2023/10/16 22:26:55;;;;;;;3.23;2.17;;;;;;;-145.68;100.00;75079.16;10345203;28;20256;-66
2023/10/16 22:31:55;;;;;;;2.73;2.40;;;;;;;-145.68;100.00;75075.16;10329362;28;20217;-66
2023/10/16 22:36:56;;;;;;;3.13;1.93;;;;;;;-145.68;100.00;75073.16;10325780;28;20233;-66
2023/10/16 22:41:56;;;;;;;8.50;2.10;;;;;;;-145.68;100.00;75065.16;10343418;28;20683;-66
2023/10/16 22:46:58;;;;;;;4.20;2.50;;;;;;;-145.68;100.00;75069.16;10354105;28;20633;-66
2023/10/16 22:51:58;;;;;;;5.90;2.80;;;;;;;-145.68;100.00;75073.16;10366347;28;20251;-66
2023/10/16 22:56:59;;;;;;;3.60;2.40;;;;;;;-145.68;100.00;75061.16;10357836;28;20510;-66
2023/10/16 23:02:00;;;;;;;2.93;1.97;;;;;;;-145.68;100.00;75051.16;10360877;28;20675;-66
2023/10/16 23:07:05;;;;;;;5.53;2.50;;;;;;;-145.68;100.00;75077.16;10363632;28;20237;-66
2023/10/16 23:17:16;;;;;;;3.87;2.03;;;;;;;-145.68;100.00;75043.16;10356543;28;20743;-66
2023/10/16 23:22:17;;;;;;;4.40;1.93;;;;;;;-145.68;100.00;75041.16;10360119;28;20259;-66
2023/10/16 23:27:17;;;;;;;3.30;2.10;;;;;;;-145.68;100.00;75047.16;10363982;28;20217;-66
2023/10/16 23:32:17;;;;;;;3.63;2.30;;;;;;;-145.68;100.00;75065.16;10351497;28;20270;-66
2023/10/16 23:37:20;;;;;;;3.30;2.10;;;;;;;-145.68;100.00;75055.16;10354982;28;20221;-66
2023/10/16 23:42:20;;;;;;;5.07;2.30;;;;;;;-145.68;100.00;75053.16;10361930;28;20216;-66
2023/10/16 23:47:21;;;;;;;6.10;2.27;;;;;;;-145.68;100.00;75073.16;10364510;28;20221;-66
2023/10/16 23:52:22;;;;;;;4.17;2.40;;;;;;;-145.68;100.00;75063.16;10366029;28;20213;-66
2023/10/16 23:57:27;;;;;;;6.03;2.37;;;;;;;-145.68;100.00;75081.16;10366436;28;20209;-66
